sensor_id;sensor_type;location;lat;lon;timestamp;pressure;altitude;pressure_sealevel;temperature;humidity
39177;BME280;24904;52.208;21.192;2024-01-10T00:03:59;102343.34;;;-7.48;61.48
39177;BME280;24904;52.208;21.192;2024-01-10T00:09:04;102347.80;;;-7.19;61.73
39177;BME280;24904;52.208;21.192;2024-01-10T00:14:09;102342.77;;;-7.04;61.75
39177;BME280;24904;52.208;21.192;2024-01-10T00:19:14;102342.19;;;-6.86;61.80
39177;BME280;24904;52.208;21.192;2024-01-10T00:24:19;102342.95;;;-6.71;61.94
39177;BME280;24904;52.208;21.192;2024-01-10T00:29:24;102342.65;;;-6.61;61.76
39177;BME280;24904;52.208;21.192;2024-01-10T00:34:29;102341.86;;;-6.53;61.23
39177;BME280;24904;52.208;21.192;2024-01-10T00:39:34;102343.41;;;-6.64;60.57
39177;BME280;24904;52.208;21.192;2024-01-10T00:44:39;102343.55;;;-6.78;60.18
39177;BME280;24904;52.208;21.192;2024-01-10T00:49:44;102346.47;;;-6.99;60.03
39177;BME280;24904;52.208;21.192;2024-01-10T00:54:49;102344.08;;;-7.11;60.15
39177;BME280;24904;52.208;21.192;2024-01-10T00:59:54;102346.52;;;-7.22;60.36
39177;BME280;24904;52.208;21.192;2024-01-10T01:04:59;102332.42;;;-7.30;60.61
39177;BME280;24904;52.208;21.192;2024-01-10T01:10:05;102329.27;;;-7.31;60.70
39177;BME280;24904;52.208;21.192;2024-01-10T01:15:12;102329.11;;;-7.29;60.98
39177;BME280;24904;52.208;21.192;2024-01-10T01:20:17;102325.16;;;-7.34;60.89
39177;BME280;24904;52.208;21.192;2024-01-10T01:25:22;102323.23;;;-7.38;60.97
39177;BME280;24904;52.208;21.192;2024-01-10T01:30:27;102313.90;;;-7.47;61.10
39177;BME280;24904;52.208;21.192;2024-01-10T01:40:32;102302.00;;;-7.46;61.84
39177;BME280;24904;52.208;21.192;2024-01-10T01:45:37;102302.27;;;-7.39;61.74
39177;BME280;24904;52.208;21.192;2024-01-10T01:50:42;102302.63;;;-7.38;61.48
39177;BME280;24904;52.208;21.192;2024-01-10T01:55:47;102298.08;;;-7.39;61.64
39177;BME280;24904;52.208;21.192;2024-01-10T02:00:53;102290.48;;;-7.40;61.72
39177;BME280;24904;52.208;21.192;2024-01-10T02:05:58;102291.39;;;-7.24;62.32
39177;BME280;24904;52.208;21.192;2024-01-10T02:11:05;102286.50;;;-6.91;62.63
39177;BME280;24904;52.208;21.192;2024-01-10T02:16:10;102289.80;;;-6.74;62.39
39177;BME280;24904;52.208;21.192;2024-01-10T02:21:15;102296.40;;;-6.58;62.42
39177;BME280;24904;52.208;21.192;2024-01-10T02:26:20;102289.34;;;-6.47;62.20
39177;BME280;24904;52.208;21.192;2024-01-10T02:31:25;102283.15;;;-6.36;62.18
39177;BME280;24904;52.208;21.192;2024-01-10T02:36:31;102279.83;;;-6.30;61.96
39177;BME280;24904;52.208;21.192;2024-01-10T02:41:36;102278.27;;;-6.27;61.77
39177;BME280;24904;52.208;21.192;2024-01-10T02:46:41;102274.73;;;-6.27;61.88
39177;BME280;24904;52.208;21.192;2024-01-10T02:51:46;102259.77;;;-6.23;61.71
39177;BME280;24904;52.208;21.192;2024-01-10T02:56:51;102253.34;;;-6.21;61.69
39177;BME280;24904;52.208;21.192;2024-01-10T03:01:56;102245.04;;;-6.16;61.71
39177;BME280;24904;52.208;21.192;2024-01-10T03:07:01;102236.70;;;-6.18;61.44
39177;BME280;24904;52.208;21.192;2024-01-10T03:12:07;102231.93;;;-6.23;61.41
39177;BME280;24904;52.208;21.192;2024-01-10T03:17:12;102228.88;;;-6.23;61.62
39177;BME280;24904;52.208;21.192;2024-01-10T03:22:18;102226.36;;;-6.23;61.57
39177;BME280;24904;52.208;21.192;2024-01-10T03:27:23;102220.35;;;-6.20;61.62
39177;BME280;24904;52.208;21.192;2024-01-10T03:32:28;102220.02;;;-6.26;61.59
39177;BME280;24904;52.208;21.192;2024-01-10T03:37:33;102221.77;;;-6.33;61.77
39177;BME280;24904;52.208;21.192;2024-01-10T03:42:38;102224.84;;;-6.30;61.95
39177;BME280;24904;52.208;21.192;2024-01-10T03:47:43;102224.08;;;-6.28;62.18
39177;BME280;24904;52.208;21.192;2024-01-10T03:52:50;102220.70;;;-6.33;62.02
39177;BME280;24904;52.208;21.192;2024-01-10T03:57:55;102216.60;;;-6.34;62.18
39177;BME280;24904;52.208;21.192;2024-01-10T04:03:01;102211.71;;;-6.36;62.31
39177;BME280;24904;52.208;21.192;2024-01-10T04:08:08;102205.50;;;-6.29;62.35
39177;BME280;24904;52.208;21.192;2024-01-10T04:13:13;102198.92;;;-6.29;62.33
39177;BME280;24904;52.208;21.192;2024-01-10T04:18:18;102198.52;;;-6.41;62.29
39177;BME280;24904;52.208;21.192;2024-01-10T04:23:23;102192.04;;;-6.53;62.60
39177;BME280;24904;52.208;21.192;2024-01-10T04:28:28;102184.90;;;-6.50;62.86
39177;BME280;24904;52.208;21.192;2024-01-10T04:33:33;102181.27;;;-6.44;62.97
39177;BME280;24904;52.208;21.192;2024-01-10T04:38:38;102174.50;;;-6.36;63.08
39177;BME280;24904;52.208;21.192;2024-01-10T04:43:43;102173.36;;;-6.31;63.09
39177;BME280;24904;52.208;21.192;2024-01-10T04:48:48;102177.08;;;-6.24;62.84
39177;BME280;24904;52.208;21.192;2024-01-10T04:53:53;102187.68;;;-6.28;62.71
39177;BME280;24904;52.208;21.192;2024-01-10T04:58:59;102190.38;;;-6.26;62.92
39177;BME280;24904;52.208;21.192;2024-01-10T05:04:04;102188.95;;;-6.19;62.92
39177;BME280;24904;52.208;21.192;2024-01-10T05:09:09;102191.40;;;-6.15;62.96
39177;BME280;24904;52.208;21.192;2024-01-10T05:14:14;102190.38;;;-6.12;62.82
39177;BME280;24904;52.208;21.192;2024-01-10T05:19:19;102193.07;;;-6.09;62.74
39177;BME280;24904;52.208;21.192;2024-01-10T05:24:24;102195.54;;;-6.28;62.85
39177;BME280;24904;52.208;21.192;2024-01-10T05:29:29;102193.08;;;-6.44;62.94
39177;BME280;24904;52.208;21.192;2024-01-10T05:34:34;102194.17;;;-6.64;63.34
39177;BME280;24904;52.208;21.192;2024-01-10T05:39:39;102196.65;;;-6.70;63.60
39177;BME280;24904;52.208;21.192;2024-01-10T05:44:44;102199.39;;;-6.76;63.97
39177;BME280;24904;52.208;21.192;2024-01-10T05:49:49;102202.04;;;-6.77;64.07
39177;BME280;24904;52.208;21.192;2024-01-10T05:54:56;102202.79;;;-6.80;64.02
39177;BME280;24904;52.208;21.192;2024-01-10T06:00:01;102198.34;;;-6.80;64.20
39177;BME280;24904;52.208;21.192;2024-01-10T06:05:10;102185.27;;;-6.66;64.28
39177;BME280;24904;52.208;21.192;2024-01-10T06:10:15;102178.31;;;-6.58;64.14
39177;BME280;24904;52.208;21.192;2024-01-10T06:15:20;102166.47;;;-6.49;63.95
39177;BME280;24904;52.208;21.192;2024-01-10T06:20:25;102160.88;;;-6.49;63.57
39177;BME280;24904;52.208;21.192;2024-01-10T06:25:31;102170.23;;;-6.55;63.27
39177;BME280;24904;52.208;21.192;2024-01-10T06:30:36;102177.19;;;-6.68;63.35
39177;BME280;24904;52.208;21.192;2024-01-10T06:35:41;102182.79;;;-6.73;63.60
39177;BME280;24904;52.208;21.192;2024-01-10T06:40:48;102193.81;;;-6.78;63.71
39177;BME280;24904;52.208;21.192;2024-01-10T06:45:54;102195.66;;;-6.82;63.83
39177;BME280;24904;52.208;21.192;2024-01-10T06:50:59;102196.55;;;-6.86;64.01
39177;BME280;24904;52.208;21.192;2024-01-10T06:56:05;102195.04;;;-6.88;64.14
39177;BME280;24904;52.208;21.192;2024-01-10T07:01:14;102193.24;;;-6.92;64.35
39177;BME280;24904;52.208;21.192;2024-01-10T07:06:19;102198.21;;;-6.92;64.34
39177;BME280;24904;52.208;21.192;2024-01-10T07:11:24;102205.82;;;-6.91;64.32
39177;BME280;24904;52.208;21.192;2024-01-10T07:16:31;102210.01;;;-6.90;64.53
39177;BME280;24904;52.208;21.192;2024-01-10T07:21:36;102210.20;;;-6.88;64.51
39177;BME280;24904;52.208;21.192;2024-01-10T07:26:41;102214.74;;;-6.80;64.65
39177;BME280;24904;52.208;21.192;2024-01-10T07:31:46;102203.42;;;-6.78;64.79
39177;BME280;24904;52.208;21.192;2024-01-10T07:36:51;102207.08;;;-6.65;64.77
39177;BME280;24904;52.208;21.192;2024-01-10T07:49:43;102193.36;;;-6.27;64.64
39177;BME280;24904;52.208;21.192;2024-01-10T07:54:48;102195.03;;;-6.26;64.57
39177;BME280;24904;52.208;21.192;2024-01-10T07:59:54;102206.75;;;-6.26;64.41
39177;BME280;24904;52.208;21.192;2024-01-10T08:04:58;102200.84;;;-6.27;64.43
39177;BME280;24904;52.208;21.192;2024-01-10T08:13:46;102198.95;;;-6.18;64.32
39177;BME280;24904;52.208;21.192;2024-01-10T08:18:51;102194.30;;;-6.24;64.39
39177;BME280;24904;52.208;21.192;2024-01-10T08:23:56;102194.02;;;-6.24;64.48
39177;BME280;24904;52.208;21.192;2024-01-10T08:29:01;102192.23;;;-6.23;64.46
39177;BME280;24904;52.208;21.192;2024-01-10T08:34:06;102194.42;;;-6.20;64.67
39177;BME280;24904;52.208;21.192;2024-01-10T08:39:11;102191.00;;;-6.05;64.71
39177;BME280;24904;52.208;21.192;2024-01-10T08:44:16;102189.73;;;-6.00;64.69
39177;BME280;24904;52.208;21.192;2024-01-10T08:49:22;102187.36;;;-5.94;64.72
39177;BME280;24904;52.208;21.192;2024-01-10T08:54:27;102185.86;;;-5.87;65.03
39177;BME280;24904;52.208;21.192;2024-01-10T08:59:32;102198.86;;;-5.67;65.28
39177;BME280;24904;52.208;21.192;2024-01-10T09:04:37;102202.29;;;-5.60;65.01
39177;BME280;24904;52.208;21.192;2024-01-10T09:09:42;102220.59;;;-5.56;65.08
39177;BME280;24904;52.208;21.192;2024-01-10T09:14:47;102225.50;;;-5.49;65.15
39177;BME280;24904;52.208;21.192;2024-01-10T09:19:52;102212.63;;;-5.29;65.32
39177;BME280;24904;52.208;21.192;2024-01-10T09:24:57;102205.04;;;-5.10;65.01
39177;BME280;24904;52.208;21.192;2024-01-10T09:30:06;102197.01;;;-4.97;65.20
39177;BME280;24904;52.208;21.192;2024-01-10T09:35:12;102199.39;;;-5.00;64.83
39177;BME280;24904;52.208;21.192;2024-01-10T09:40:17;102200.71;;;-4.97;65.23
39177;BME280;24904;52.208;21.192;2024-01-10T09:45:24;102201.84;;;-4.85;65.36
39177;BME280;24904;52.208;21.192;2024-01-10T09:50:30;102198.93;;;-4.94;64.93
39177;BME280;24904;52.208;21.192;2024-01-10T09:55:37;102204.77;;;-4.99;65.27
39177;BME280;24904;52.208;21.192;2024-01-10T10:00:43;102202.30;;;-4.99;65.10
39177;BME280;24904;52.208;21.192;2024-01-10T10:05:48;102202.00;;;-4.89;65.42
39177;BME280;24904;52.208;21.192;2024-01-10T10:10:53;102198.45;;;-4.71;65.28
39177;BME280;24904;52.208;21.192;2024-01-10T10:16:02;102194.20;;;-4.50;65.54
39177;BME280;24904;52.208;21.192;2024-01-10T10:21:12;102187.27;;;-4.40;64.82
39177;BME280;24904;52.208;21.192;2024-01-10T10:26:17;102182.55;;;-4.31;64.97
39177;BME280;24904;52.208;21.192;2024-01-10T10:31:26;102176.17;;;-4.26;64.72
39177;BME280;24904;52.208;21.192;2024-01-10T10:36:33;102175.06;;;-4.14;64.58
39177;BME280;24904;52.208;21.192;2024-01-10T10:41:43;102168.67;;;-4.00;64.51
39177;BME280;24904;52.208;21.192;2024-01-10T10:46:54;102162.64;;;-3.84;64.28
39177;BME280;24904;52.208;21.192;2024-01-10T10:52:01;102151.55;;;-3.85;64.02
39177;BME280;24904;52.208;21.192;2024-01-10T10:57:07;102134.34;;;-3.81;64.25
39177;BME280;24904;52.208;21.192;2024-01-10T11:02:12;102131.95;;;-3.76;64.14
39177;BME280;24904;52.208;21.192;2024-01-10T11:07:24;102124.52;;;-3.69;64.47
39177;BME280;24904;52.208;21.192;2024-01-10T11:12:45;102122.46;;;-3.53;64.45
39177;BME280;24904;52.208;21.192;2024-01-10T11:18:15;102120.36;;;-3.54;64.33
39177;BME280;24904;52.208;21.192;2024-01-10T11:23:40;102116.44;;;-3.68;64.31
39177;BME280;24904;52.208;21.192;2024-01-10T11:28:48;102115.52;;;-3.61;64.56
39177;BME280;24904;52.208;21.192;2024-01-10T11:33:53;102105.65;;;-3.63;64.53
39177;BME280;24904;52.208;21.192;2024-01-10T11:39:02;102096.73;;;-3.63;64.77
39177;BME280;24904;52.208;21.192;2024-01-10T11:44:31;102096.89;;;-3.51;64.96
39177;BME280;24904;52.208;21.192;2024-01-10T11:49:36;102092.60;;;-3.34;65.00
39177;BME280;24904;52.208;21.192;2024-01-10T11:54:43;102085.17;;;-3.26;64.44
39177;BME280;24904;52.208;21.192;2024-01-10T11:59:49;102085.45;;;-3.29;64.69
39177;BME280;24904;52.208;21.192;2024-01-10T12:04:55;102078.20;;;-3.22;64.35
39177;BME280;24904;52.208;21.192;2024-01-10T12:10:00;102069.30;;;-3.24;64.66
39177;BME280;24904;52.208;21.192;2024-01-10T12:15:06;102073.33;;;-3.21;64.66
39177;BME280;24904;52.208;21.192;2024-01-10T12:20:13;102070.60;;;-3.09;64.78
39177;BME280;24904;52.208;21.192;2024-01-10T12:25:18;102064.60;;;-2.98;65.08
39177;BME280;24904;52.208;21.192;2024-01-10T12:30:23;102068.11;;;-2.87;64.80
39177;BME280;24904;52.208;21.192;2024-01-10T12:35:30;102073.09;;;-2.82;65.03
39177;BME280;24904;52.208;21.192;2024-01-10T12:40:35;102076.38;;;-2.81;64.46
39177;BME280;24904;52.208;21.192;2024-01-10T12:45:40;102073.98;;;-2.90;64.72
39177;BME280;24904;52.208;21.192;2024-01-10T12:50:47;102051.16;;;-2.94;64.94
39177;BME280;24904;52.208;21.192;2024-01-10T12:55:52;102041.73;;;-2.76;65.28
39177;BME280;24904;52.208;21.192;2024-01-10T13:00:58;102033.10;;;-2.67;64.86
39177;BME280;24904;52.208;21.192;2024-01-10T13:13:58;102043.19;;;-2.58;64.54
39177;BME280;24904;52.208;21.192;2024-01-10T13:19:04;102041.38;;;-2.56;65.09
39177;BME280;24904;52.208;21.192;2024-01-10T13:24:09;102037.73;;;-2.59;64.70
39177;BME280;24904;52.208;21.192;2024-01-10T13:29:14;102028.47;;;-2.64;64.82
39177;BME280;24904;52.208;21.192;2024-01-10T13:34:19;102025.60;;;-2.72;64.70
39177;BME280;24904;52.208;21.192;2024-01-10T13:39:24;102026.17;;;-2.73;65.03
39177;BME280;24904;52.208;21.192;2024-01-10T13:44:29;102023.04;;;-2.74;65.10
39177;BME280;24904;52.208;21.192;2024-01-10T13:49:34;102020.50;;;-2.76;65.14
39177;BME280;24904;52.208;21.192;2024-01-10T13:54:39;102017.44;;;-2.75;64.83
39177;BME280;24904;52.208;21.192;2024-01-10T13:59:44;102021.88;;;-2.84;64.78
39177;BME280;24904;52.208;21.192;2024-01-10T14:04:50;102020.02;;;-2.86;65.18
39177;BME280;24904;52.208;21.192;2024-01-10T14:09:57;102011.25;;;-2.89;65.15
39177;BME280;24904;52.208;21.192;2024-01-10T14:15:02;102005.59;;;-2.91;65.28
39177;BME280;24904;52.208;21.192;2024-01-10T14:20:09;102004.39;;;-2.92;65.39
39177;BME280;24904;52.208;21.192;2024-01-10T14:25:14;102006.40;;;-2.87;65.74
39177;BME280;24904;52.208;21.192;2024-01-10T14:30:19;101997.05;;;-2.82;66.12
39177;BME280;24904;52.208;21.192;2024-01-10T14:35:24;101995.50;;;-2.85;65.79
39177;BME280;24904;52.208;21.192;2024-01-10T14:40:29;101990.27;;;-2.90;66.01
39177;BME280;24904;52.208;21.192;2024-01-10T14:45:34;101978.30;;;-2.94;66.17
39177;BME280;24904;52.208;21.192;2024-01-10T14:50:39;101972.46;;;-2.99;66.06
39177;BME280;24904;52.208;21.192;2024-01-10T14:55:44;101959.95;;;-2.98;66.05
39177;BME280;24904;52.208;21.192;2024-01-10T15:00:49;101952.33;;;-2.97;66.22
39177;BME280;24904;52.208;21.192;2024-01-10T15:05:55;101953.79;;;-3.01;66.52
39177;BME280;24904;52.208;21.192;2024-01-10T15:11:00;101955.82;;;-3.15;66.42
39177;BME280;24904;52.208;21.192;2024-01-10T15:16:05;101948.65;;;-3.31;66.11
39177;BME280;24904;52.208;21.192;2024-01-10T15:21:11;101939.28;;;-3.48;66.32
39177;BME280;24904;52.208;21.192;2024-01-10T15:26:18;101934.75;;;-3.50;66.78
39177;BME280;24904;52.208;21.192;2024-01-10T15:31:24;101934.50;;;-3.58;66.64
39177;BME280;24904;52.208;21.192;2024-01-10T15:36:32;101932.12;;;-3.63;66.85
39177;BME280;24904;52.208;21.192;2024-01-10T15:41:37;101937.04;;;-3.70;66.97
39177;BME280;24904;52.208;21.192;2024-01-10T15:46:42;101939.52;;;-3.76;67.09
39177;BME280;24904;52.208;21.192;2024-01-10T15:51:47;101940.59;;;-3.85;67.14
39177;BME280;24904;52.208;21.192;2024-01-10T15:56:53;101947.45;;;-3.94;67.15
39177;BME280;24904;52.208;21.192;2024-01-10T16:01:58;101928.91;;;-3.98;67.12
39177;BME280;24904;52.208;21.192;2024-01-10T16:07:05;101934.08;;;-4.12;67.38
39177;BME280;24904;52.208;21.192;2024-01-10T16:12:10;101939.23;;;-4.22;67.22
39177;BME280;24904;52.208;21.192;2024-01-10T16:17:16;101932.14;;;-4.26;67.20
39177;BME280;24904;52.208;21.192;2024-01-10T16:22:21;101930.23;;;-4.34;67.27
39177;BME280;24904;52.208;21.192;2024-01-10T16:27:26;101930.96;;;-4.37;67.16
39177;BME280;24904;52.208;21.192;2024-01-10T16:32:31;101922.95;;;-4.40;67.18
39177;BME280;24904;52.208;21.192;2024-01-10T16:41:36;101909.71;;;-4.49;67.44
39177;BME280;24904;52.208;21.192;2024-01-10T16:46:43;101903.77;;;-4.56;67.25
39177;BME280;24904;52.208;21.192;2024-01-10T16:51:48;101889.39;;;-4.60;67.40
39177;BME280;24904;52.208;21.192;2024-01-10T16:56:53;101885.02;;;-4.66;67.42
39177;BME280;24904;52.208;21.192;2024-01-10T17:01:58;101880.20;;;-4.68;67.58
39177;BME280;24904;52.208;21.192;2024-01-10T17:07:04;101876.02;;;-4.66;67.53
39177;BME280;24904;52.208;21.192;2024-01-10T17:12:10;101870.73;;;-4.71;67.47
39177;BME280;24904;52.208;21.192;2024-01-10T17:17:15;101861.81;;;-4.74;67.32
39177;BME280;24904;52.208;21.192;2024-01-10T17:22:20;101859.73;;;-4.79;67.30
39177;BME280;24904;52.208;21.192;2024-01-10T17:27:25;101851.80;;;-4.85;67.09
39177;BME280;24904;52.208;21.192;2024-01-10T17:32:31;101841.36;;;-4.92;67.13
39177;BME280;24904;52.208;21.192;2024-01-10T17:37:36;101845.17;;;-4.98;67.12
39177;BME280;24904;52.208;21.192;2024-01-10T17:42:41;101838.39;;;-5.01;67.51
39177;BME280;24904;52.208;21.192;2024-01-10T17:47:46;101833.01;;;-4.91;68.98
39177;BME280;24904;52.208;21.192;2024-01-10T17:52:51;101825.38;;;-4.77;69.44
39177;BME280;24904;52.208;21.192;2024-01-10T17:57:57;101821.34;;;-4.69;70.11
39177;BME280;24904;52.208;21.192;2024-01-10T18:03:02;101814.22;;;-4.60;70.56
39177;BME280;24904;52.208;21.192;2024-01-10T18:08:07;101817.77;;;-4.49;70.76
39177;BME280;24904;52.208;21.192;2024-01-10T18:13:17;101819.19;;;-4.38;71.04
39177;BME280;24904;52.208;21.192;2024-01-10T18:18:22;101810.55;;;-4.44;71.28
39177;BME280;24904;52.208;21.192;2024-01-10T18:23:28;101807.24;;;-4.52;71.55
39177;BME280;24904;52.208;21.192;2024-01-10T18:28:33;101802.60;;;-4.66;71.92
39177;BME280;24904;52.208;21.192;2024-01-10T18:33:38;101794.51;;;-4.71;72.30
39177;BME280;24904;52.208;21.192;2024-01-10T18:38:43;101794.42;;;-4.69;72.48
39177;BME280;24904;52.208;21.192;2024-01-10T18:43:48;101803.00;;;-4.62;72.75
39177;BME280;24904;52.208;21.192;2024-01-10T18:48:53;101795.84;;;-4.49;72.55
39177;BME280;24904;52.208;21.192;2024-01-10T18:53:58;101786.14;;;-4.42;72.65
39177;BME280;24904;52.208;21.192;2024-01-10T18:59:03;101776.74;;;-4.35;72.23
39177;BME280;24904;52.208;21.192;2024-01-10T19:04:08;101782.70;;;-4.27;71.88
39177;BME280;24904;52.208;21.192;2024-01-10T19:09:13;101779.17;;;-4.30;71.49
39177;BME280;24904;52.208;21.192;2024-01-10T19:14:19;101769.61;;;-4.44;72.00
39177;BME280;24904;52.208;21.192;2024-01-10T19:19:24;101758.85;;;-4.58;72.54
39177;BME280;24904;52.208;21.192;2024-01-10T19:24:29;101752.16;;;-4.63;73.31
39177;BME280;24904;52.208;21.192;2024-01-10T19:29:34;101756.69;;;-4.67;73.95
39177;BME280;24904;52.208;21.192;2024-01-10T19:34:40;101753.94;;;-4.63;74.50
39177;BME280;24904;52.208;21.192;2024-01-10T19:39:46;101750.31;;;-4.70;75.15
39177;BME280;24904;52.208;21.192;2024-01-10T19:44:51;101755.29;;;-4.74;75.75
39177;BME280;24904;52.208;21.192;2024-01-10T19:49:56;101759.98;;;-4.69;75.92
39177;BME280;24904;52.208;21.192;2024-01-10T19:55:01;101756.55;;;-4.68;76.39
39177;BME280;24904;52.208;21.192;2024-01-10T20:00:08;101753.89;;;-4.68;76.85
39177;BME280;24904;52.208;21.192;2024-01-10T20:05:13;101746.20;;;-4.64;77.10
39177;BME280;24904;52.208;21.192;2024-01-10T20:10:19;101737.08;;;-4.55;77.32
39177;BME280;24904;52.208;21.192;2024-01-10T20:15:24;101731.96;;;-4.57;77.29
39177;BME280;24904;52.208;21.192;2024-01-10T20:20:29;101720.13;;;-4.63;77.47
39177;BME280;24904;52.208;21.192;2024-01-10T20:25:34;101721.05;;;-4.70;77.54
39177;BME280;24904;52.208;21.192;2024-01-10T20:30:41;101706.21;;;-4.70;77.94
39177;BME280;24904;52.208;21.192;2024-01-10T20:35:46;101706.14;;;-4.62;78.00
39177;BME280;24904;52.208;21.192;2024-01-10T20:40:51;101701.94;;;-4.53;78.20
39177;BME280;24904;52.208;21.192;2024-01-10T20:45:56;101694.67;;;-4.39;78.00
39177;BME280;24904;52.208;21.192;2024-01-10T20:51:01;101697.48;;;-4.31;77.99
39177;BME280;24904;52.208;21.192;2024-01-10T20:56:07;101697.20;;;-4.22;78.00
39177;BME280;24904;52.208;21.192;2024-01-10T21:01:13;101696.55;;;-4.16;77.58
39177;BME280;24904;52.208;21.192;2024-01-10T21:06:18;101687.77;;;-4.07;77.65
39177;BME280;24904;52.208;21.192;2024-01-10T21:11:23;101675.04;;;-4.01;77.18
39177;BME280;24904;52.208;21.192;2024-01-10T21:16:28;101659.25;;;-3.98;77.07
39177;BME280;24904;52.208;21.192;2024-01-10T21:21:33;101655.36;;;-3.96;76.94
39177;BME280;24904;52.208;21.192;2024-01-10T21:26:39;101655.64;;;-4.03;76.34
39177;BME280;24904;52.208;21.192;2024-01-10T21:31:45;101650.85;;;-4.11;76.16
39177;BME280;24904;52.208;21.192;2024-01-10T21:36:50;101650.61;;;-4.20;76.16
39177;BME280;24904;52.208;21.192;2024-01-10T21:41:55;101643.04;;;-4.29;76.07
39177;BME280;24904;52.208;21.192;2024-01-10T21:47:00;101636.73;;;-4.35;75.95
39177;BME280;24904;52.208;21.192;2024-01-10T21:52:09;101634.66;;;-4.29;75.80
39177;BME280;24904;52.208;21.192;2024-01-10T21:57:14;101628.02;;;-4.37;75.42
39177;BME280;24904;52.208;21.192;2024-01-10T22:02:23;101628.98;;;-4.49;75.01
39177;BME280;24904;52.208;21.192;2024-01-10T22:07:28;101624.17;;;-4.56;74.80
39177;BME280;24904;52.208;21.192;2024-01-10T22:12:33;101623.13;;;-4.62;74.66
39177;BME280;24904;52.208;21.192;2024-01-10T22:17:38;101613.55;;;-4.56;74.35
39177;BME280;24904;52.208;21.192;2024-01-10T22:22:43;101597.61;;;-4.55;73.95
39177;BME280;24904;52.208;21.192;2024-01-10T22:27:48;101583.08;;;-4.52;73.98
39177;BME280;24904;52.208;21.192;2024-01-10T22:32:54;101589.23;;;-4.59;73.50
39177;BME280;24904;52.208;21.192;2024-01-10T22:37:59;101584.92;;;-4.74;73.29
39177;BME280;24904;52.208;21.192;2024-01-10T22:43:04;101569.46;;;-4.83;73.33
39177;BME280;24904;52.208;21.192;2024-01-10T22:48:10;101558.05;;;-4.93;73.17
39177;BME280;24904;52.208;21.192;2024-01-10T22:53:15;101542.20;;;-4.95;73.15
39177;BME280;24904;52.208;21.192;2024-01-10T22:58:20;101528.85;;;-4.93;73.23
39177;BME280;24904;52.208;21.192;2024-01-10T23:03:25;101520.15;;;-4.91;73.13
39177;BME280;24904;52.208;21.192;2024-01-10T23:08:35;101507.89;;;-4.91;73.18
39177;BME280;24904;52.208;21.192;2024-01-10T23:13:40;101503.91;;;-4.99;73.00
39177;BME280;24904;52.208;21.192;2024-01-10T23:18:45;101491.80;;;-5.06;72.94
39177;BME280;24904;52.208;21.192;2024-01-10T23:23:50;101484.98;;;-5.15;72.95
39177;BME280;24904;52.208;21.192;2024-01-10T23:28:55;101468.98;;;-5.13;73.31
39177;BME280;24904;52.208;21.192;2024-01-10T23:34:00;101450.19;;;-5.10;73.09
39177;BME280;24904;52.208;21.192;2024-01-10T23:39:05;101429.70;;;-5.15;72.94
39177;BME280;24904;52.208;21.192;2024-01-10T23:44:11;101409.95;;;-5.24;73.04
39177;BME280;24904;52.208;21.192;2024-01-10T23:49:16;101409.73;;;-5.26;72.80
39177;BME280;24904;52.208;21.192;2024-01-10T23:54:21;101396.07;;;-5.30;72.75
39177;BME280;24904;52.208;21.192;2024-01-10T23:59:26;101385.09;;;-5.34;72.62
